sensor_id;sensor_type;location;lat;lon;timestamp;P1;durP1;ratioP1;P2;durP2;ratioP2
2107;SDS011;1060;52.492;13.388;2023-11-22T07:14:54;11.55;;;8.43;;
2107;SDS011;1060;52.492;13.388;2023-11-22T07:17:24;10.52;;;7.30;;
2107;SDS011;1060;52.492;13.388;2023-11-22T07:19:52;7.65;;;6.85;;
2107;SDS011;1060;52.492;13.388;2023-11-22T07:22:28;10.07;;;8.95;;
2107;SDS011;1060;52.492;13.388;2023-11-22T07:25:09;12.73;;;8.77;;
2107;SDS011;1060;52.492;13.388;2023-11-22T07:28:26;10.95;;;7.13;;
2107;SDS011;1060;52.492;13.388;2023-11-22T07:30:53;7.07;;;6.22;;
2107;SDS011;1060;52.492;13.388;2023-11-22T07:33:30;9.07;;;7.88;;
2107;SDS011;1060;52.492;13.388;2023-11-22T07:36:09;12.10;;;7.82;;
2107;SDS011;1060;52.492;13.388;2023-11-22T07:38:43;10.57;;;8.52;;
2107;SDS011;1060;52.492;13.388;2023-11-22T07:41:13;9.98;;;7.07;;
2107;SDS011;1060;52.492;13.388;2023-11-22T07:43:51;9.35;;;8.45;;
2107;SDS011;1060;52.492;13.388;2023-11-22T07:46:30;8.52;;;7.72;;
2107;SDS011;1060;52.492;13.388;2023-11-22T07:49:22;7.65;;;6.90;;
2107;SDS011;1060;52.492;13.388;2023-11-22T07:51:59;11.02;;;6.72;;
2107;SDS011;1060;52.492;13.388;2023-11-22T07:54:32;9.25;;;7.65;;
2107;SDS011;1060;52.492;13.388;2023-11-22T07:57:01;8.77;;;7.55;;
2107;SDS011;1060;52.492;13.388;2023-11-22T07:59:30;11.20;;;8.32;;
2107;SDS011;1060;52.492;13.388;2023-11-22T08:02:05;10.00;;;8.50;;
2107;SDS011;1060;52.492;13.388;2023-11-22T08:04:39;14.18;;;9.20;;
2107;SDS011;1060;52.492;13.388;2023-11-22T08:07:11;9.07;;;8.27;;
2107;SDS011;1060;52.492;13.388;2023-11-22T08:09:40;13.00;;;8.77;;
2107;SDS011;1060;52.492;13.388;2023-11-22T08:12:15;13.20;;;8.45;;
2107;SDS011;1060;52.492;13.388;2023-11-22T08:15:08;13.13;;;9.70;;
2107;SDS011;1060;52.492;13.388;2023-11-22T08:17:38;10.32;;;9.02;;
2107;SDS011;1060;52.492;13.388;2023-11-22T08:20:08;17.50;;;10.50;;
2107;SDS011;1060;52.492;13.388;2023-11-22T08:22:49;10.82;;;9.50;;
2107;SDS011;1060;52.492;13.388;2023-11-22T08:29:16;14.05;;;10.48;;
2107;SDS011;1060;52.492;13.388;2023-11-22T08:32:21;16.40;;;9.63;;
2107;SDS011;1060;52.492;13.388;2023-11-22T08:42:00;14.90;;;10.10;;
2107;SDS011;1060;52.492;13.388;2023-11-22T08:55:57;10.30;;;8.32;;
2107;SDS011;1060;52.492;13.388;2023-11-22T09:01:45;14.13;;;9.77;;
2107;SDS011;1060;52.492;13.388;2023-11-22T09:07:36;8.63;;;7.00;;
2107;SDS011;1060;52.492;13.388;2023-11-22T09:10:11;12.88;;;9.00;;
2107;SDS011;1060;52.492;13.388;2023-11-22T09:12:45;13.27;;;9.68;;
2107;SDS011;1060;52.492;13.388;2023-11-22T09:15:38;8.95;;;7.55;;
2107;SDS011;1060;52.492;13.388;2023-11-22T09:25:23;10.02;;;8.07;;
2107;SDS011;1060;52.492;13.388;2023-11-22T09:28:08;9.80;;;7.95;;
2107;SDS011;1060;52.492;13.388;2023-11-22T09:31:20;10.80;;;9.68;;
2107;SDS011;1060;52.492;13.388;2023-11-22T10:07:48;9.25;;;7.68;;
2107;SDS011;1060;52.492;13.388;2023-11-22T10:11:11;7.47;;;6.45;;
2107;SDS011;1060;52.492;13.388;2023-11-22T10:16:56;7.20;;;6.50;;
2107;SDS011;1060;52.492;13.388;2023-11-22T16:11:51;11.73;;;10.57;;
2107;SDS011;1060;52.492;13.388;2023-11-22T16:14:29;12.35;;;8.73;;
2107;SDS011;1060;52.492;13.388;2023-11-22T16:17:04;8.95;;;7.95;;
2107;SDS011;1060;52.492;13.388;2023-11-22T16:19:53;11.38;;;8.75;;
2107;SDS011;1060;52.492;13.388;2023-11-22T22:52:24;19.55;;;15.88;;
2107;SDS011;1060;52.492;13.388;2023-11-22T22:55:35;21.58;;;16.70;;
2107;SDS011;1060;52.492;13.388;2023-11-22T22:58:50;17.00;;;15.18;;
2107;SDS011;1060;52.492;13.388;2023-11-22T23:01:55;17.40;;;15.55;;
2107;SDS011;1060;52.492;13.388;2023-11-22T23:41:15;16.33;;;12.18;;
2107;SDS011;1060;52.492;13.388;2023-11-22T23:43:48;17.38;;;14.00;;
